Etusivu
METAR-TAF:

METAR-TAF

Lentoasemat :

Northeast Alabama Regional Airport

Gadsden, Alabama, Yhdysvallat

Leveyspiiri: 33-58N, Pituuspiiri: 086-05W, korkeus merenpinnasta: 173 m

Tämänhetkinen sää

Tämä raportti tehtiin 16 minuuttia sitten, kello 14.56 UTC
Tuuli 3 kn kaakosta
Lämpötila 13°C
Kosteus 88%
Ilmanpaine 1016 hPa
Näkyvyys: 16.1 km
Pilvistä 1100 ft:n korkeudessa

METAR: KGAD 091456Z AUTO 13003KT 10SM OVC011 13/11 A3001 RMK AO2 SLP164 60000 T01330111 56000

Aika: 09:12 (15:12 UTC)


TAF: puuttuu

Säähavainnot ja -ennusteet yli 4000 lentoasemalta (METAR- ja TAF-raportit).

Käytössä olevat sääasemat on merkitty karttaan keltaisilla ja punaisilla pisteillä.

Aseta hiiri pisteen päälle nähdäksesi sääaseman nimen.

Klikkaa sitten nähdäksesi säähavainnot ja -ennusteet.

Kartan vaihtaminen: klikkaa mustalla rastilla varustettuja vihreitä pisteitä, niin voit zoomata sisään; viivalla varustettua vihreää pistettä, niin voit zoomata ulos tai vihreitä nuolia, niin pääset viereisille kartoille.


METAR-TAF: